aviador You're here:

KFAF Decoded Metar

FORT EUSTIS in VA, USA
Report Time2018-02-17 23:26:00
UTC Time2018-02-17 23:39:30
Flight Rules ifr IFR
Wind340° at 04 kt
W.Decomp.*RWY 32: 3.4 kt HW 2.1 kt RCW
W.Rank340° ranks 23
Current wind is below 340° avg. (6.6)
Visibility9999 m
Phenomena:Light Rain
Clouds:Broken 005 Hf
Overcast 012 Hf
Expected CloudBase > 400 ft AGL from Temp-Dew spread
Ceiling500 ft
Temp04°C (ISA -11)
Dew Point03°C (93% RH)
AAT1.1°C
QNH1021 hPa
Density Alt-1,486 ft
Elevation13 ft
Report Wrong Elevation
Raw Report
KFAF 172326Z AUTO 34004KT 10SM -RA BKN005 OVC012 04/03 A3015 RMK
AO2 SLP213 $=

Extra information for KFAF:More info

Metar Taf Metar & Taf Last 4 Metars F.Rules Stats Wind Profile Meteogram Temp Stats Airport Information Weather charts Add Link Nearby VenuesMetar ALERT Operation Metar Decoded Social comments

AIRNAV info for KFAF